sensor_id;sensor_type;location;lat;lon;timestamp;temperature;humidity
20315;DHT22;10315;50.958;13.080;2023-04-25T00:05:59;6.30;99.90
20315;DHT22;10315;50.958;13.080;2023-04-25T00:16:04;6.00;99.90
20315;DHT22;10315;50.958;13.080;2023-04-25T00:26:06;5.60;99.90
20315;DHT22;10315;50.958;13.080;2023-04-25T00:36:09;5.40;99.90
20315;DHT22;10315;50.958;13.080;2023-04-25T00:46:11;5.20;99.90
20315;DHT22;10315;50.958;13.080;2023-04-25T00:56:15;5.10;99.90
20315;DHT22;10315;50.958;13.080;2023-04-25T01:06:17;4.90;99.90
20315;DHT22;10315;50.958;13.080;2023-04-25T01:16:20;4.80;99.90
20315;DHT22;10315;50.958;13.080;2023-04-25T01:26:25;4.60;99.90
20315;DHT22;10315;50.958;13.080;2023-04-25T01:36:28;4.50;99.90
20315;DHT22;10315;50.958;13.080;2023-04-25T01:46:31;4.40;99.90
20315;DHT22;10315;50.958;13.080;2023-04-25T01:56:34;4.70;99.90
20315;DHT22;10315;50.958;13.080;2023-04-25T02:06:39;4.80;99.90
20315;DHT22;10315;50.958;13.080;2023-04-25T02:16:41;4.80;99.90
20315;DHT22;10315;50.958;13.080;2023-04-25T02:26:45;4.80;99.90
20315;DHT22;10315;50.958;13.080;2023-04-25T02:36:48;4.70;99.90
20315;DHT22;10315;50.958;13.080;2023-04-25T02:46:51;4.50;99.90
20315;DHT22;10315;50.958;13.080;2023-04-25T02:56:53;4.30;99.90
20315;DHT22;10315;50.958;13.080;2023-04-25T03:06:56;4.40;99.90
20315;DHT22;10315;50.958;13.080;2023-04-25T03:16:57;4.30;99.90
20315;DHT22;10315;50.958;13.080;2023-04-25T03:27:00;4.60;99.90
20315;DHT22;10315;50.958;13.080;2023-04-25T03:37:02;4.60;99.90
20315;DHT22;10315;50.958;13.080;2023-04-25T03:47:07;4.80;99.90
20315;DHT22;10315;50.958;13.080;2023-04-25T03:57:08;5.00;99.90
20315;DHT22;10315;50.958;13.080;2023-04-25T04:07:12;4.90;99.90
20315;DHT22;10315;50.958;13.080;2023-04-25T04:17:13;5.00;99.90
20315;DHT22;10315;50.958;13.080;2023-04-25T04:27:19;4.80;99.90
20315;DHT22;10315;50.958;13.080;2023-04-25T04:37:21;4.70;99.90
20315;DHT22;10315;50.958;13.080;2023-04-25T04:47:24;5.00;99.90
20315;DHT22;10315;50.958;13.080;2023-04-25T04:57:31;5.40;99.90
20315;DHT22;10315;50.958;13.080;2023-04-25T05:07:34;5.70;99.90
20315;DHT22;10315;50.958;13.080;2023-04-25T05:17:36;6.20;99.90
20315;DHT22;10315;50.958;13.080;2023-04-25T05:27:39;6.40;99.90
20315;DHT22;10315;50.958;13.080;2023-04-25T05:37:43;6.40;99.90
20315;DHT22;10315;50.958;13.080;2023-04-25T05:47:46;7.10;99.90
20315;DHT22;10315;50.958;13.080;2023-04-25T05:57:47;8.00;99.90
20315;DHT22;10315;50.958;13.080;2023-04-25T06:07:51;8.50;99.90
20315;DHT22;10315;50.958;13.080;2023-04-25T06:17:52;8.70;99.90
20315;DHT22;10315;50.958;13.080;2023-04-25T06:27:55;9.40;99.90
20315;DHT22;10315;50.958;13.080;2023-04-25T06:37:57;10.80;99.90
20315;DHT22;10315;50.958;13.080;2023-04-25T06:47:59;12.30;99.90
20315;DHT22;10315;50.958;13.080;2023-04-25T06:58:03;17.10;99.90
20315;DHT22;10315;50.958;13.080;2023-04-25T07:08:06;16.30;98.70
20315;DHT22;10315;50.958;13.080;2023-04-25T07:18:08;21.00;91.00
20315;DHT22;10315;50.958;13.080;2023-04-25T07:28:12;21.30;80.50
20315;DHT22;10315;50.958;13.080;2023-04-25T07:38:13;19.80;87.10
20315;DHT22;10315;50.958;13.080;2023-04-25T07:48:18;25.30;69.00
20315;DHT22;10315;50.958;13.080;2023-04-25T07:58:20;18.20;82.30
20315;DHT22;10315;50.958;13.080;2023-04-25T08:08:23;15.40;90.10
20315;DHT22;10315;50.958;13.080;2023-04-25T08:18:25;14.50;93.80
20315;DHT22;10315;50.958;13.080;2023-04-25T08:28:28;12.10;99.90
20315;DHT22;10315;50.958;13.080;2023-04-25T08:38:29;11.20;99.90
20315;DHT22;10315;50.958;13.080;2023-04-25T08:48:33;11.70;99.90
20315;DHT22;10315;50.958;13.080;2023-04-25T08:58:37;10.40;99.90
20315;DHT22;10315;50.958;13.080;2023-04-25T09:08:40;11.20;99.90
20315;DHT22;10315;50.958;13.080;2023-04-25T09:18:41;10.90;99.90
20315;DHT22;10315;50.958;13.080;2023-04-25T09:28:45;10.40;99.90
20315;DHT22;10315;50.958;13.080;2023-04-25T09:38:48;9.90;99.90
20315;DHT22;10315;50.958;13.080;2023-04-25T09:48:51;10.20;99.90
20315;DHT22;10315;50.958;13.080;2023-04-25T09:58:54;10.70;99.90
20315;DHT22;10315;50.958;13.080;2023-04-25T10:08:57;10.80;99.90
20315;DHT22;10315;50.958;13.080;2023-04-25T10:18:59;11.80;99.90
20315;DHT22;10315;50.958;13.080;2023-04-25T10:29:03;11.10;99.90
20315;DHT22;10315;50.958;13.080;2023-04-25T10:39:05;10.10;99.90
20315;DHT22;10315;50.958;13.080;2023-04-25T10:49:10;10.00;99.90
20315;DHT22;10315;50.958;13.080;2023-04-25T10:59:14;9.40;99.90
20315;DHT22;10315;50.958;13.080;2023-04-25T11:09:18;9.80;99.90
20315;DHT22;10315;50.958;13.080;2023-04-25T11:19:19;10.30;99.90
20315;DHT22;10315;50.958;13.080;2023-04-25T11:29:23;9.90;99.90
20315;DHT22;10315;50.958;13.080;2023-04-25T11:39:25;10.00;99.90
20315;DHT22;10315;50.958;13.080;2023-04-25T11:49:31;10.30;99.90
20315;DHT22;10315;50.958;13.080;2023-04-25T11:59:33;11.00;99.90
20315;DHT22;10315;50.958;13.080;2023-04-25T12:09:36;11.60;99.90
20315;DHT22;10315;50.958;13.080;2023-04-25T12:19:38;10.70;99.90
20315;DHT22;10315;50.958;13.080;2023-04-25T12:29:50;10.10;99.90
20315;DHT22;10315;50.958;13.080;2023-04-25T12:39:52;9.00;99.90
20315;DHT22;10315;50.958;13.080;2023-04-25T12:49:55;8.40;99.90
20315;DHT22;10315;50.958;13.080;2023-04-25T12:59:59;8.80;99.90
20315;DHT22;10315;50.958;13.080;2023-04-25T13:10:02;8.50;99.90
20315;DHT22;10315;50.958;13.080;2023-04-25T13:20:04;8.60;99.90
20315;DHT22;10315;50.958;13.080;2023-04-25T13:30:10;9.20;99.90
20315;DHT22;10315;50.958;13.080;2023-04-25T13:40:12;9.40;99.90
20315;DHT22;10315;50.958;13.080;2023-04-25T13:50:16;9.10;99.90
20315;DHT22;10315;50.958;13.080;2023-04-25T14:00:18;10.50;99.90
20315;DHT22;10315;50.958;13.080;2023-04-25T14:10:22;11.70;99.90
20315;DHT22;10315;50.958;13.080;2023-04-25T14:20:23;11.40;99.90
20315;DHT22;10315;50.958;13.080;2023-04-25T14:30:26;12.00;99.90
20315;DHT22;10315;50.958;13.080;2023-04-25T14:40:28;10.80;99.90
20315;DHT22;10315;50.958;13.080;2023-04-25T14:50:36;9.40;99.90
20315;DHT22;10315;50.958;13.080;2023-04-25T15:00:38;7.10;99.90
20315;DHT22;10315;50.958;13.080;2023-04-25T15:10:41;6.50;99.90
20315;DHT22;10315;50.958;13.080;2023-04-25T15:20:43;6.30;99.90
20315;DHT22;10315;50.958;13.080;2023-04-25T15:30:45;6.90;99.90
20315;DHT22;10315;50.958;13.080;2023-04-25T15:40:47;7.90;99.90
20315;DHT22;10315;50.958;13.080;2023-04-25T15:50:50;8.00;99.90
20315;DHT22;10315;50.958;13.080;2023-04-25T16:00:52;8.70;99.90
20315;DHT22;10315;50.958;13.080;2023-04-25T16:10:56;8.40;99.90
20315;DHT22;10315;50.958;13.080;2023-04-25T16:20:57;7.40;99.90
20315;DHT22;10315;50.958;13.080;2023-04-25T16:31:00;7.30;99.90
20315;DHT22;10315;50.958;13.080;2023-04-25T16:41:02;7.30;99.90
20315;DHT22;10315;50.958;13.080;2023-04-25T16:51:05;7.30;99.90
20315;DHT22;10315;50.958;13.080;2023-04-25T17:01:07;7.30;99.90
20315;DHT22;10315;50.958;13.080;2023-04-25T17:11:09;7.10;99.90
20315;DHT22;10315;50.958;13.080;2023-04-25T17:21:11;7.10;99.90
20315;DHT22;10315;50.958;13.080;2023-04-25T17:31:14;6.90;99.90
20315;DHT22;10315;50.958;13.080;2023-04-25T17:41:16;6.90;99.90
20315;DHT22;10315;50.958;13.080;2023-04-25T17:51:19;6.70;99.90
20315;DHT22;10315;50.958;13.080;2023-04-25T18:01:21;6.50;99.90
20315;DHT22;10315;50.958;13.080;2023-04-25T18:11:24;6.30;99.90
20315;DHT22;10315;50.958;13.080;2023-04-25T18:21:26;6.00;99.90
20315;DHT22;10315;50.958;13.080;2023-04-25T18:31:29;6.00;99.90
20315;DHT22;10315;50.958;13.080;2023-04-25T18:41:32;5.90;99.90
20315;DHT22;10315;50.958;13.080;2023-04-25T18:51:35;5.60;99.90
20315;DHT22;10315;50.958;13.080;2023-04-25T19:01:37;5.70;99.90
20315;DHT22;10315;50.958;13.080;2023-04-25T19:11:40;5.50;99.90
20315;DHT22;10315;50.958;13.080;2023-04-25T19:21:41;5.20;99.90
20315;DHT22;10315;50.958;13.080;2023-04-25T19:31:44;4.70;99.90
20315;DHT22;10315;50.958;13.080;2023-04-25T19:41:46;4.20;99.90
20315;DHT22;10315;50.958;13.080;2023-04-25T19:51:49;3.70;99.90
20315;DHT22;10315;50.958;13.080;2023-04-25T20:01:50;3.50;99.90
20315;DHT22;10315;50.958;13.080;2023-04-25T20:11:54;3.70;99.90
20315;DHT22;10315;50.958;13.080;2023-04-25T20:21:56;3.50;99.90
20315;DHT22;10315;50.958;13.080;2023-04-25T20:31:59;3.10;99.90
20315;DHT22;10315;50.958;13.080;2023-04-25T20:42:00;3.50;99.90
20315;DHT22;10315;50.958;13.080;2023-04-25T20:52:04;3.70;99.90
20315;DHT22;10315;50.958;13.080;2023-04-25T21:02:06;3.40;99.90
20315;DHT22;10315;50.958;13.080;2023-04-25T21:12:11;3.40;99.90
20315;DHT22;10315;50.958;13.080;2023-04-25T21:22:12;3.70;99.90
20315;DHT22;10315;50.958;13.080;2023-04-25T21:32:15;4.00;99.90
20315;DHT22;10315;50.958;13.080;2023-04-25T21:42:20;4.20;99.90
20315;DHT22;10315;50.958;13.080;2023-04-25T21:52:23;3.80;99.90
20315;DHT22;10315;50.958;13.080;2023-04-25T22:02:28;3.70;99.90
20315;DHT22;10315;50.958;13.080;2023-04-25T22:12:32;3.40;99.90
20315;DHT22;10315;50.958;13.080;2023-04-25T22:22:35;3.20;99.90
20315;DHT22;10315;50.958;13.080;2023-04-25T22:32:38;2.90;99.90
20315;DHT22;10315;50.958;13.080;2023-04-25T22:42:55;2.50;99.90
20315;DHT22;10315;50.958;13.080;2023-04-25T22:52:58;2.60;99.90
20315;DHT22;10315;50.958;13.080;2023-04-25T23:03:00;3.20;99.90
20315;DHT22;10315;50.958;13.080;2023-04-25T23:13:04;3.30;99.90
20315;DHT22;10315;50.958;13.080;2023-04-25T23:23:05;3.20;99.90
20315;DHT22;10315;50.958;13.080;2023-04-25T23:33:09;3.00;99.90
20315;DHT22;10315;50.958;13.080;2023-04-25T23:43:10;2.90;99.90
20315;DHT22;10315;50.958;13.080;2023-04-25T23:53:13;2.70;99.90
